Time;durP1;ratioP1;P1;durP2;ratioP2;P2;SDS_P1;SDS_P2;PMS_P1;PMS_P2;Temp;Humidity;BMP_temperature;BMP_pressure;BME280_temperature;BME280_humidity;BME280_pressure;Samples;Min_cycle;Max_cycle;Signal;HPM_P1;HPM_P2
2022/03/29 00:01:28;;;;;;;27.50;17.93;;;8.90;1.00;;;;;;4986649;28;20461;-57
2022/03/29 00:03:55;;;;;;;25.50;17.87;;;8.90;1.00;;;;;;4987363;28;20465;-56
2022/03/29 00:06:22;;;;;;;24.70;18.47;;;8.90;1.00;;;;;;4999585;28;20472;-57
2022/03/29 00:08:52;;;;;;;27.53;18.73;;;8.90;1.00;;;;;;4997570;28;20925;-57
2022/03/29 00:11:19;;;;;;;31.77;18.20;;;8.90;1.00;;;;;;4998829;28;20520;-56
2022/03/29 00:13:46;;;;;;;23.30;17.33;;;8.90;1.00;;;;;;4991428;28;20468;-55
2022/03/29 00:16:15;;;;;;;30.37;19.80;;;8.80;1.00;;;;;;4999153;28;20878;-57
2022/03/29 00:18:42;;;;;;;27.13;19.00;;;8.80;1.00;;;;;;4998545;28;20461;-57
2022/03/29 00:21:09;;;;;;;24.20;17.73;;;8.80;1.00;;;;;;4982595;28;20465;-56
2022/03/29 00:23:36;;;;;;;24.13;18.27;;;8.80;1.00;;;;;;4998904;28;20508;-57
2022/03/29 00:26:03;;;;;;;27.33;17.50;;;8.80;1.00;;;;;;4999057;28;20548;-58
2022/03/29 00:28:30;;;;;;;27.83;18.73;;;8.80;1.00;;;;;;4999343;28;20867;-57
2022/03/29 00:31:00;;;;;;;23.73;17.03;;;8.80;1.00;;;;;;4989124;28;20543;-56
2022/03/29 00:33:28;;;;;;;27.97;19.17;;;8.80;1.00;;;;;;4998586;28;20807;-57
2022/03/29 00:35:55;;;;;;;30.87;19.40;;;8.80;1.00;;;;;;4985377;28;20492;-57
2022/03/29 00:38:22;;;;;;;30.27;18.20;;;8.80;1.00;;;;;;4999086;28;20544;-56
2022/03/29 00:40:55;;;;;;;26.60;18.90;;;8.80;1.00;;;;;;4995274;28;20977;-57
2022/03/29 00:43:23;;;;;;;29.87;19.60;;;8.80;1.00;;;;;;4999029;28;20519;-57
2022/03/29 00:45:53;;;;;;;30.77;20.00;;;8.80;1.00;;;;;;4990681;28;20496;-57
2022/03/29 00:48:23;;;;;;;28.33;20.40;;;8.80;1.00;;;;;;4998784;28;20469;-58
2022/03/29 00:50:59;;;;;;;29.60;20.20;;;8.80;1.00;;;;;;4993318;28;20525;-57
2022/03/29 00:53:28;;;;;;;29.20;19.70;;;8.80;1.00;;;;;;4987457;28;20497;-57
2022/03/29 00:56:02;;;;;;;27.03;17.90;;;8.80;1.00;;;;;;4987747;28;20466;-57
2022/03/29 00:58:32;;;;;;;26.33;17.80;;;8.90;1.00;;;;;;4989646;28;20489;-56
2022/03/29 01:01:01;;;;;;;36.27;21.53;;;8.90;1.00;;;;;;4995758;28;20531;-58
2022/03/29 01:03:32;;;;;;;27.93;20.70;;;8.90;1.00;;;;;;4989538;28;20461;-58
2022/03/29 01:06:01;;;;;;;25.90;20.20;;;8.90;1.00;;;;;;4990994;28;20825;-57
2022/03/29 01:08:28;;;;;;;27.30;19.40;;;8.90;1.00;;;;;;4991044;28;20473;-58
2022/03/29 01:10:56;;;;;;;33.37;20.23;;;8.80;1.00;;;;;;4984982;28;20509;-58
2022/03/29 01:13:25;;;;;;;26.77;19.70;;;8.80;1.00;;;;;;4990213;28;20496;-57
2022/03/29 01:15:54;;;;;;;26.00;19.27;;;8.80;1.00;;;;;;4991789;28;20473;-57
2022/03/29 01:18:28;;;;;;;26.30;18.27;;;8.70;1.00;;;;;;4998446;28;20465;-57
2022/03/29 01:21:00;;;;;;;28.03;18.30;;;8.70;1.00;;;;;;4988295;28;20516;-55
2022/03/29 01:23:29;;;;;;;27.33;19.43;;;8.70;1.00;;;;;;4991565;28;20556;-58
2022/03/29 01:25:56;;;;;;;23.80;18.10;;;8.70;1.00;;;;;;4996210;28;20444;-58
2022/03/29 01:28:24;;;;;;;25.87;19.17;;;8.70;1.00;;;;;;4998384;28;20633;-58
2022/03/29 01:30:56;;;;;;;24.83;18.93;;;8.70;1.00;;;;;;4992643;28;20466;-57
2022/03/29 01:33:24;;;;;;;25.53;18.23;;;8.70;1.00;;;;;;4992792;28;20497;-56
2022/03/29 01:35:53;;;;;;;27.83;20.47;;;8.70;1.00;;;;;;4987197;28;20505;-58
2022/03/29 01:38:20;;;;;;;26.33;18.90;;;8.70;1.00;;;;;;4989605;28;20462;-59
2022/03/29 01:40:48;;;;;;;29.07;20.10;;;8.70;1.00;;;;;;4978604;28;20941;-57
2022/03/29 01:43:23;;;;;;;23.13;17.93;;;8.70;1.00;;;;;;4978181;28;20428;-57
2022/03/29 01:45:54;;;;;;;28.43;19.83;;;8.70;1.00;;;;;;4978028;28;20541;-57
2022/03/29 01:48:24;;;;;;;28.63;20.67;;;8.70;1.00;;;;;;4975531;28;20553;-57
2022/03/29 01:50:54;;;;;;;28.73;21.37;;;8.70;1.00;;;;;;4979289;28;20469;-56
2022/03/29 01:53:27;;;;;;;31.10;20.03;;;8.60;1.00;;;;;;4975190;28;20556;-57
2022/03/29 01:56:03;;;;;;;26.40;20.73;;;8.60;1.00;;;;;;4976316;28;20767;-54
2022/03/29 01:58:33;;;;;;;28.30;20.33;;;8.70;1.00;;;;;;4977616;28;20453;-57
2022/03/29 02:01:05;;;;;;;30.00;20.83;;;8.70;1.00;;;;;;4975132;28;20521;-58
2022/03/29 02:03:32;;;;;;;34.73;20.60;;;8.70;1.00;;;;;;4977474;28;20482;-55
2022/03/29 02:06:02;;;;;;;28.33;20.57;;;8.70;1.00;;;;;;4995327;28;20519;-58
2022/03/29 02:08:29;;;;;;;25.93;20.73;;;8.70;1.00;;;;;;4979478;28;20812;-58
2022/03/29 02:10:58;;;;;;;29.97;21.23;;;8.70;1.00;;;;;;4996109;28;20464;-57
2022/03/29 02:13:27;;;;;;;29.93;21.63;;;8.70;1.00;;;;;;4984065;28;20544;-57
2022/03/29 02:15:54;;;;;;;30.97;20.87;;;8.70;1.00;;;;;;4980288;28;20789;-58
2022/03/29 02:18:54;;;;;;;30.00;22.20;;;8.70;1.00;;;;;;5115150;27;20283;-57
2022/03/29 02:21:22;;;;;;;28.73;20.77;;;8.60;1.00;;;;;;5114146;28;20930;-55
2022/03/29 02:23:48;;;;;;;27.90;21.00;;;8.60;1.00;;;;;;5112954;28;20459;-57
2022/03/29 02:26:20;;;;;;;30.80;20.27;;;8.60;1.00;;;;;;5113573;28;20509;-58
2022/03/29 02:28:47;;;;;;;28.37;21.20;;;8.60;1.00;;;;;;5114530;28;20455;-58
2022/03/29 02:31:14;;;;;;;33.40;22.07;;;8.60;1.00;;;;;;5114743;28;20456;-58
2022/03/29 02:33:41;;;;;;;27.00;20.20;;;8.60;1.00;;;;;;5114075;28;20460;-56
2022/03/29 02:36:15;;;;;;;29.00;22.50;;;8.60;1.00;;;;;;5113744;28;20455;-57
2022/03/29 02:38:42;;;;;;;28.40;21.50;;;8.50;1.00;;;;;;5114391;28;20465;-56
2022/03/29 02:41:09;;;;;;;30.53;22.10;;;8.50;1.00;;;;;;5114567;28;20459;-58
2022/03/29 02:43:49;;;;;;;28.83;22.07;;;8.50;1.00;;;;;;5114134;28;20894;-58
2022/03/29 02:46:19;;;;;;;30.07;23.17;;;8.50;1.00;;;;;;5113640;28;20460;-58
2022/03/29 02:48:46;;;;;;;30.53;21.53;;;8.50;1.00;;;;;;5113906;28;20459;-57
2022/03/29 02:51:16;;;;;;;32.90;22.63;;;8.50;1.00;;;;;;5114201;28;20509;-58
2022/03/29 02:53:44;;;;;;;33.00;22.30;;;8.50;1.00;;;;;;5114037;28;20943;-57
2022/03/29 02:56:12;;;;;;;31.70;22.17;;;8.50;1.00;;;;;;5113079;28;20463;-58
2022/03/29 02:58:45;;;;;;;33.63;22.23;;;8.50;1.00;;;;;;5111607;28;20548;-58
2022/03/29 03:01:12;;;;;;;33.60;24.37;;;8.40;1.00;;;;;;5114389;28;20907;-59
2022/03/29 03:03:39;;;;;;;27.00;22.00;;;8.50;1.00;;;;;;5113911;28;20499;-55
2022/03/29 03:06:08;;;;;;;30.27;20.87;;;8.50;1.00;;;;;;5113858;28;20459;-58
2022/03/29 03:08:39;;;;;;;32.93;21.67;;;8.40;1.00;;;;;;5113912;28;20456;-58
2022/03/29 03:11:17;;;;;;;33.20;23.10;;;8.50;1.00;;;;;;5113577;28;20464;-57
2022/03/29 03:13:47;;;;;;;32.70;23.53;;;8.50;1.00;;;;;;5113561;28;20742;-58
2022/03/29 03:16:17;;;;;;;32.27;23.10;;;8.40;1.00;;;;;;5113034;28;20468;-59
2022/03/29 03:18:47;;;;;;;31.30;22.60;;;8.40;1.00;;;;;;5113725;28;20521;-57
2022/03/29 03:21:32;;;;;;;33.80;24.13;;;8.40;1.00;;;;;;5112719;28;20459;-57
2022/03/29 03:24:02;;;;;;;29.93;22.50;;;8.30;1.00;;;;;;5113373;28;20513;-57
2022/03/29 03:26:39;;;;;;;26.87;21.77;;;8.40;1.00;;;;;;5113144;28;20552;-57
2022/03/29 03:29:09;;;;;;;32.43;22.77;;;8.30;1.00;;;;;;5088765;28;20467;-58
2022/03/29 03:31:37;;;;;;;29.67;22.73;;;8.30;1.00;;;;;;5099319;28;20464;-58
2022/03/29 03:34:07;;;;;;;30.20;22.03;;;8.30;1.00;;;;;;5099527;28;20463;-58
2022/03/29 03:36:34;;;;;;;32.87;23.43;;;8.30;1.00;;;;;;5100164;28;20911;-57
2022/03/29 03:39:04;;;;;;;33.67;22.80;;;8.30;1.00;;;;;;5099067;28;20897;-58
2022/03/29 03:41:32;;;;;;;31.80;22.70;;;8.30;1.00;;;;;;5098858;28;20465;-58
2022/03/29 03:44:06;;;;;;;32.57;22.90;;;8.20;1.00;;;;;;5099180;28;20512;-58
2022/03/29 03:46:35;;;;;;;35.10;22.67;;;8.20;1.00;;;;;;5099838;28;20875;-57
2022/03/29 03:49:02;;;;;;;31.83;25.37;;;8.20;1.00;;;;;;5099179;28;20464;-58
2022/03/29 03:51:29;;;;;;;35.70;25.10;;;8.20;1.00;;;;;;5098296;28;20453;-57
2022/03/29 03:53:58;;;;;;;38.00;23.63;;;8.20;1.00;;;;;;5099074;28;20465;-54
2022/03/29 03:56:29;;;;;;;35.37;24.43;;;8.10;1.00;;;;;;5098780;28;20861;-58
2022/03/29 03:58:58;;;;;;;30.50;23.23;;;8.00;1.00;;;;;;5098669;28;20480;-58
2022/03/29 04:01:25;;;;;;;32.03;24.17;;;8.00;1.00;;;;;;5099399;28;20435;-58
2022/03/29 04:03:54;;;;;;;33.63;24.80;;;8.00;1.00;;;;;;5098361;28;20464;-58
2022/03/29 04:06:22;;;;;;;34.90;23.97;;;8.00;7.10;;;;;;5097556;28;20526;-57
2022/03/29 04:08:49;;;;;;;37.70;25.60;;;8.00;18.30;;;;;;5094904;28;20464;-58
2022/03/29 04:11:17;;;;;;;37.20;26.40;;;7.90;21.20;;;;;;5097343;28;20456;-57
2022/03/29 04:13:46;;;;;;;38.70;25.30;;;7.90;25.20;;;;;;5095372;28;20526;-55
2022/03/29 04:16:16;;;;;;;32.20;24.80;;;7.90;31.80;;;;;;5096206;28;20513;-58
2022/03/29 04:18:47;;;;;;;31.33;23.90;;;7.90;36.00;;;;;;5096555;28;20516;-58
2022/03/29 04:21:17;;;;;;;45.27;26.17;;;7.80;56.20;;;;;;5096032;28;20471;-58
2022/03/29 04:23:47;;;;;;;33.40;25.30;;;7.80;93.80;;;;;;5096613;28;20482;-58
2022/03/29 04:26:17;;;;;;;38.53;26.97;;;7.80;96.40;;;;;;5092648;28;20537;-55
2022/03/29 04:28:49;;;;;;;37.57;25.10;;;7.80;97.90;;;;;;5093721;28;20530;-56
2022/03/29 04:31:17;;;;;;;35.40;24.73;;;7.70;99.90;;;;;;5094239;28;20893;-57
2022/03/29 04:33:47;;;;;;;40.57;26.30;;;7.80;99.90;;;;;;5095872;28;20457;-58
2022/03/29 04:36:14;;;;;;;41.67;27.53;;;7.80;99.90;;;;;;5093267;28;20461;-56
2022/03/29 04:38:47;;;;;;;37.50;25.90;;;7.70;99.90;;;;;;5094583;28;20499;-58
2022/03/29 04:41:22;;;;;;;37.40;25.50;;;7.70;99.90;;;;;;5091920;28;20551;-57
2022/03/29 04:44:01;;;;;;;38.60;26.13;;;7.70;99.90;;;;;;5092689;28;20877;-58
2022/03/29 04:46:28;;;;;;;36.80;24.40;;;7.70;99.90;;;;;;5096052;28;20464;-58
2022/03/29 04:48:58;;;;;;;41.03;27.23;;;7.60;99.90;;;;;;5096400;28;20463;-57
2022/03/29 04:51:28;;;;;;;37.43;25.70;;;7.60;99.90;;;;;;5096244;28;20471;-58
2022/03/29 04:53:57;;;;;;;38.43;24.53;;;7.60;99.90;;;;;;5094413;28;20552;-58
2022/03/29 04:56:24;;;;;;;45.13;27.47;;;7.60;99.90;;;;;;5094850;28;20518;-58
2022/03/29 04:58:51;;;;;;;40.73;26.03;;;7.60;99.90;;;;;;5094670;28;20557;-58
2022/03/29 05:01:20;;;;;;;40.10;26.40;;;7.60;99.90;;;;;;5095186;28;20468;-58
2022/03/29 05:03:50;;;;;;;38.60;27.97;;;7.60;99.90;;;;;;5096242;28;20816;-58
2022/03/29 05:06:19;;;;;;;40.50;28.33;;;7.50;99.90;;;;;;5092890;28;20469;-57
2022/03/29 05:08:46;;;;;;;43.30;29.20;;;7.50;99.90;;;;;;5096893;28;20456;-57
2022/03/29 05:11:17;;;;;;;40.87;28.30;;;7.50;99.90;;;;;;5094525;28;20456;-57
2022/03/29 05:13:45;;;;;;;45.70;29.83;;;7.50;99.90;;;;;;5095870;28;20530;-57
2022/03/29 05:16:14;;;;;;;43.33;29.30;;;7.40;99.90;;;;;;5096298;28;20517;-57
2022/03/29 05:18:44;;;;;;;41.83;29.40;;;7.40;99.90;;;;;;5097931;28;20492;-58
2022/03/29 05:21:14;;;;;;;43.90;28.10;;;7.30;99.90;;;;;;5097099;28;20750;-54
2022/03/29 05:23:41;;;;;;;43.37;27.97;;;7.30;99.90;;;;;;5094472;28;20523;-59
2022/03/29 05:26:12;;;;;;;43.97;30.20;;;7.20;99.90;;;;;;5094361;28;20648;-57
2022/03/29 05:28:43;;;;;;;43.90;29.40;;;7.20;99.90;;;;;;5093542;28;20903;-57
2022/03/29 05:31:10;;;;;;;47.10;28.93;;;7.30;99.90;;;;;;5095919;28;20465;-57
2022/03/29 05:33:39;;;;;;;44.70;29.60;;;7.20;99.90;;;;;;5095840;28;20461;-57
2022/03/29 05:36:08;;;;;;;47.27;31.20;;;7.20;99.90;;;;;;5093734;28;20694;-55
2022/03/29 05:38:40;;;;;;;49.90;33.13;;;7.20;99.90;;;;;;5094290;28;20513;-57
2022/03/29 05:41:09;;;;;;;47.63;31.70;;;7.20;1.00;;;;;;5092672;28;20427;-58
2022/03/29 05:43:36;;;;;;;48.07;33.00;;;7.20;1.00;;;;;;5094738;28;20468;-59
2022/03/29 05:48:59;;;;;;;51.13;32.50;;;7.30;99.90;;;;;;5084213;28;20428;-59
2022/03/29 05:51:31;;;;;;;46.50;31.07;;;7.30;99.90;;;;;;5095414;28;20471;-60
2022/03/29 05:54:00;;;;;;;45.80;31.63;;;7.30;99.90;;;;;;5096874;28;20468;-59
2022/03/29 05:56:27;;;;;;;43.87;32.20;;;7.30;99.90;;;;;;5095663;28;20464;-59
2022/03/29 05:58:57;;;;;;;43.33;31.70;;;7.30;99.90;;;;;;5095135;28;20492;-59
2022/03/29 06:01:27;;;;;;;46.63;33.03;;;7.40;99.90;;;;;;5095684;28;20464;-59
2022/03/29 06:03:54;;;;;;;53.33;33.70;;;7.50;99.90;;;;;;5097012;28;20572;-59
2022/03/29 06:06:21;;;;;;;48.40;32.73;;;7.50;99.90;;;;;;5095627;28;20494;-59
2022/03/29 06:08:50;;;;;;;49.67;32.23;;;7.60;99.90;;;;;;5095791;28;20460;-59
2022/03/29 06:11:21;;;;;;;48.37;32.10;;;7.60;99.90;;;;;;5095464;28;20586;-59
2022/03/29 06:13:48;;;;;;;45.73;31.37;;;7.60;99.90;;;;;;5096483;28;20507;-59
2022/03/29 06:16:21;;;;;;;47.50;34.43;;;7.60;99.90;;;;;;5096297;28;20525;-59
2022/03/29 06:18:50;;;;;;;46.63;32.97;;;7.70;99.90;;;;;;5096229;28;20531;-58
2022/03/29 06:21:18;;;;;;;48.73;32.73;;;7.60;99.90;;;;;;5096730;28;20460;-59
2022/03/29 06:23:54;;;;;;;49.67;31.97;;;7.60;99.90;;;;;;5096897;28;20521;-58
2022/03/29 06:26:21;;;;;;;51.70;33.37;;;7.60;99.90;;;;;;5096357;28;20674;-59
2022/03/29 06:28:54;;;;;;;43.73;30.63;;;7.60;99.90;;;;;;5096459;28;20465;-58
2022/03/29 06:31:24;;;;;;;45.00;32.60;;;7.70;99.90;;;;;;5096852;28;20460;-59
2022/03/29 06:33:51;;;;;;;50.03;33.03;;;7.80;99.90;;;;;;5096377;28;20465;-59
2022/03/29 06:36:18;;;;;;;45.30;33.57;;;7.90;99.90;;;;;;5095539;28;20484;-59
2022/03/29 06:39:02;;;;;;;45.33;33.93;;;7.90;99.90;;;;;;5093464;28;20492;-59
2022/03/29 06:41:31;;;;;;;46.53;31.60;;;8.00;99.90;;;;;;5076171;28;20561;-59
2022/03/29 06:44:02;;;;;;;44.53;32.63;;;8.10;99.90;;;;;;5086735;28;20467;-59
2022/03/29 06:46:39;;;;;;;48.57;34.20;;;8.10;99.90;;;;;;5082790;28;20849;-60
2022/03/29 06:49:08;;;;;;;43.37;31.77;;;8.20;99.90;;;;;;5092152;28;20495;-59
2022/03/29 06:51:36;;;;;;;46.87;33.43;;;8.30;98.30;;;;;;5091445;28;20453;-58
2022/03/29 06:54:07;;;;;;;46.97;32.70;;;8.20;61.80;;;;;;5093692;28;20507;-59
2022/03/29 06:56:39;;;;;;;44.20;34.17;;;8.30;58.30;;;;;;5093773;28;20464;-59
2022/03/29 06:59:10;;;;;;;46.87;34.17;;;8.30;46.30;;;;;;5095564;28;20515;-59
2022/03/29 07:01:42;;;;;;;50.17;33.43;;;8.30;56.20;;;;;;5094123;28;20460;-59
2022/03/29 07:04:11;;;;;;;41.83;32.30;;;8.40;48.50;;;;;;5097767;28;20464;-59
2022/03/29 07:06:38;;;;;;;46.57;32.90;;;8.60;38.10;;;;;;5100325;28;20463;-59
2022/03/29 07:11:53;;;;;;;43.43;33.00;;;8.70;1.00;;;;;;5098919;28;20961;-59
2022/03/29 07:14:20;;;;;;;42.60;30.90;;;8.70;1.00;;;;;;5098748;28;20456;-60
2022/03/29 07:16:54;;;;;;;44.93;33.67;;;8.80;1.00;;;;;;5099096;28;20784;-59
2022/03/29 07:19:23;;;;;;;42.10;31.93;;;8.80;1.00;;;;;;5099837;28;20586;-59
2022/03/29 07:21:53;;;;;;;41.90;33.47;;;8.90;1.00;;;;;;5099262;28;20826;-59
2022/03/29 07:24:24;;;;;;;44.87;32.73;;;9.00;1.00;;;;;;5100243;28;20912;-59
2022/03/29 07:26:51;;;;;;;38.63;32.40;;;9.20;1.00;;;;;;5099994;28;20551;-59
2022/03/29 07:29:19;;;;;;;43.57;32.87;;;9.30;1.00;;;;;;5099771;28;20743;-60
2022/03/29 07:31:46;;;;;;;44.07;32.43;;;9.50;1.00;;;;;;5099068;28;20464;-60
2022/03/29 07:34:14;;;;;;;42.67;31.20;;;9.50;1.00;;;;;;5099308;28;20772;-60
2022/03/29 07:36:43;;;;;;;45.23;32.63;;;9.50;1.00;;;;;;5092604;28;20526;-59
2022/03/29 07:39:23;;;;;;;41.40;31.23;;;9.70;1.00;;;;;;5099697;28;20553;-60
2022/03/29 07:41:51;;;;;;;39.53;30.17;;;9.80;1.00;;;;;;5088806;28;20464;-60
2022/03/29 07:44:21;;;;;;;43.47;30.93;;;9.90;1.00;;;;;;5097309;28;20456;-60
2022/03/29 07:46:52;;;;;;;40.90;32.17;;;9.80;1.00;;;;;;5098429;28;20778;-60
2022/03/29 07:49:24;;;;;;;42.63;31.43;;;10.00;1.00;;;;;;5098253;28;20435;-60
2022/03/29 07:51:52;;;;;;;42.50;34.77;;;9.90;1.00;;;;;;5098294;28;20560;-60
2022/03/29 07:54:22;;;;;;;41.43;31.97;;;10.10;1.00;;;;;;5099351;28;20517;-59
2022/03/29 07:56:56;;;;;;;40.50;30.27;;;10.40;1.00;;;;;;5094741;28;20464;-60
2022/03/29 07:59:26;;;;;;;40.37;30.93;;;10.70;1.00;;;;;;5098786;28;20520;-60
2022/03/29 08:02:10;;;;;;;46.33;34.20;;;10.70;1.00;;;;;;5098352;28;20831;-59
2022/03/29 08:04:42;;;;;;;42.67;32.20;;;10.70;1.00;;;;;;5096560;28;20468;-60
2022/03/29 08:07:09;;;;;;;37.83;30.37;;;10.80;1.00;;;;;;5097843;28;20475;-60
2022/03/29 08:09:40;;;;;;;37.53;31.20;;;11.10;1.00;;;;;;5098341;28;20457;-59
2022/03/29 08:12:11;;;;;;;37.93;29.90;;;11.10;1.00;;;;;;5098917;28;20457;-60
2022/03/29 08:14:47;;;;;;;40.43;30.80;;;11.10;1.00;;;;;;5097142;28;21006;-59
2022/03/29 08:17:14;;;;;;;38.97;31.60;;;11.30;1.00;;;;;;5097819;28;20514;-60
2022/03/29 08:19:43;;;;;;;36.77;31.30;;;11.80;1.00;;;;;;5097520;28;20553;-60
2022/03/29 08:22:13;;;;;;;34.33;30.50;;;11.80;1.00;;;;;;5099629;28;20483;-60
2022/03/29 08:24:41;;;;;;;37.40;29.63;;;11.90;1.00;;;;;;5098436;28;20465;-60
2022/03/29 08:27:14;;;;;;;38.40;29.57;;;11.80;1.00;;;;;;5098924;28;20461;-60
2022/03/29 08:29:41;;;;;;;35.97;30.50;;;11.40;1.00;;;;;;5098342;28;20487;-60
2022/03/29 08:32:08;;;;;;;35.63;30.47;;;11.70;1.00;;;;;;5098606;28;20457;-59
2022/03/29 08:34:37;;;;;;;37.17;30.40;;;11.90;1.00;;;;;;5096797;28;21930;-60
2022/03/29 08:37:07;;;;;;;39.97;33.07;;;11.70;1.00;;;;;;5098355;28;20460;-60
2022/03/29 08:39:38;;;;;;;37.90;30.67;;;11.80;1.00;;;;;;5097688;28;20547;-60
2022/03/29 08:44:55;;;;;;;36.60;31.33;;;11.60;1.00;;;;;;5078232;28;20494;-60
2022/03/29 08:47:22;;;;;;;40.60;33.50;;;11.90;1.00;;;;;;5098764;28;20505;-60
2022/03/29 08:49:50;;;;;;;43.10;33.07;;;11.80;1.00;;;;;;5097260;28;20546;-60
2022/03/29 08:52:20;;;;;;;39.10;34.13;;;11.90;1.00;;;;;;5097777;28;20892;-60
2022/03/29 08:54:49;;;;;;;37.43;31.47;;;11.80;1.00;;;;;;5098408;28;20525;-59
2022/03/29 08:57:17;;;;;;;35.13;31.27;;;11.40;1.00;;;;;;5097481;28;20551;-60
2022/03/29 08:59:46;;;;;;;40.73;32.90;;;11.30;1.00;;;;;;5097674;28;20558;-60
2022/03/29 09:02:16;;;;;;;40.83;33.93;;;11.50;1.00;;;;;;5097907;28;20873;-60
2022/03/29 09:04:44;;;;;;;42.97;33.57;;;11.50;1.00;;;;;;5097885;28;20468;-60
2022/03/29 09:07:11;;;;;;;42.40;35.10;;;11.60;1.00;;;;;;5099172;28;20521;-59
2022/03/29 09:09:44;;;;;;;45.60;34.57;;;11.60;1.00;;;;;;5098044;28;20904;-60
2022/03/29 09:12:16;;;;;;;43.00;34.40;;;11.50;1.00;;;;;;5098311;28;20529;-60
2022/03/29 09:14:57;;;;;;;42.87;35.90;;;11.50;1.00;;;;;;5098710;28;20467;-60
2022/03/29 09:17:33;;;;;;;44.40;35.20;;;11.60;1.00;;;;;;5097480;28;20496;-60
2022/03/29 09:20:09;;;;;;;47.13;34.30;;;11.60;1.00;;;;;;5097709;28;20544;-60
2022/03/29 09:22:45;;;;;;;42.40;36.07;;;11.70;1.00;;;;;;5098910;28;20510;-60
2022/03/29 09:25:17;;;;;;;47.50;36.50;;;11.70;1.00;;;;;;5099315;28;20469;-60
2022/03/29 09:28:06;;;;;;;45.70;37.60;;;11.60;1.00;;;;;;5096493;28;20456;-60
2022/03/29 09:30:38;;;;;;;48.97;35.23;;;11.50;1.00;;;;;;5091042;28;20465;-60
2022/03/29 09:33:20;;;;;;;46.07;37.77;;;11.40;1.00;;;;;;5099054;28;20750;-60
2022/03/29 09:36:03;;;;;;;49.23;37.90;;;11.50;1.00;;;;;;5098024;28;20496;-60
2022/03/29 09:38:39;;;;;;;50.83;38.13;;;11.40;1.00;;;;;;5097876;28;20499;-60
2022/03/29 09:41:19;;;;;;;52.13;38.47;;;11.40;1.00;;;;;;5097283;28;20491;-60
2022/03/29 09:43:59;;;;;;;53.17;39.47;;;11.40;1.00;;;;;;5097451;28;20464;-60
2022/03/29 09:46:29;;;;;;;46.97;36.50;;;11.70;1.00;;;;;;5098101;28;20484;-60
2022/03/29 09:49:04;;;;;;;43.60;36.53;;;11.80;1.00;;;;;;5097170;28;20501;-59
2022/03/29 09:51:38;;;;;;;51.00;39.97;;;11.80;1.00;;;;;;5096284;28;20520;-60
2022/03/29 09:54:11;;;;;;;50.07;38.53;;;11.60;1.00;;;;;;5097551;28;20482;-60
2022/03/29 09:56:57;;;;;;;49.10;41.17;;;11.50;1.00;;;;;;5096792;28;20816;-60
2022/03/29 09:59:29;;;;;;;48.80;37.20;;;11.70;1.00;;;;;;5096848;28;20806;-60
2022/03/29 10:02:04;;;;;;;50.43;39.03;;;11.60;1.00;;;;;;5081863;28;20463;-60
2022/03/29 10:04:39;;;;;;;53.97;41.33;;;11.40;1.00;;;;;;5098112;28;20820;-60
2022/03/29 10:07:16;;;;;;;51.80;40.00;;;11.40;1.00;;;;;;5096805;28;20773;-60
2022/03/29 10:09:47;;;;;;;46.07;37.10;;;11.30;1.00;;;;;;5096402;28;20462;-60
2022/03/29 10:12:19;;;;;;;50.10;40.10;;;11.30;1.00;;;;;;5096214;28;20460;-60
2022/03/29 10:14:51;;;;;;;52.70;42.30;;;11.40;1.00;;;;;;5092271;28;20450;-60
2022/03/29 10:17:35;;;;;;;54.53;40.63;;;11.40;1.00;;;;;;5086194;28;20493;-60
2022/03/29 10:20:10;;;;;;;59.13;42.47;;;11.20;1.00;;;;;;5093180;28;20499;-60
2022/03/29 10:22:40;;;;;;;57.17;40.23;;;11.10;1.00;;;;;;5095454;28;20578;-60
2022/03/29 10:25:18;;;;;;;56.60;41.63;;;11.00;1.00;;;;;;5097703;28;20464;-60
2022/03/29 10:27:47;;;;;;;52.70;40.57;;;11.10;1.00;;;;;;5096674;28;20464;-60
2022/03/29 10:30:31;;;;;;;49.97;42.17;;;11.10;1.00;;;;;;5095960;28;20464;-60
2022/03/29 10:33:19;;;;;;;53.27;41.33;;;11.20;1.00;;;;;;5097114;28;20554;-60
2022/03/29 10:36:08;;;;;;;56.27;40.67;;;11.20;1.00;;;;;;5097519;28;20518;-59
2022/03/29 10:38:57;;;;;;;53.77;41.17;;;11.20;1.00;;;;;;5098423;28;20480;-60
2022/03/29 10:41:55;;;;;;;54.00;41.20;;;11.00;1.00;;;;;;5084069;28;20483;-60
2022/03/29 10:44:22;;;;;;;59.30;42.67;;;11.30;1.00;;;;;;5098679;28;20961;-60
2022/03/29 10:46:52;;;;;;;56.27;42.93;;;11.70;1.00;;;;;;5099732;28;20739;-60
2022/03/29 10:49:24;;;;;;;54.70;40.80;;;12.00;1.00;;;;;;5099966;28;20547;-60
2022/03/29 10:51:55;;;;;;;52.07;38.33;;;11.90;1.00;;;;;;5091102;28;20876;-60
2022/03/29 10:54:35;;;;;;;53.87;39.80;;;11.90;1.00;;;;;;5100501;28;20464;-60
2022/03/29 10:57:18;;;;;;;58.03;42.67;;;11.90;1.00;;;;;;5101315;28;20456;-60
2022/03/29 11:00:17;;;;;;;50.90;40.80;;;12.10;1.00;;;;;;5096902;28;20491;-60
2022/03/29 11:03:09;;;;;;;50.07;38.23;;;12.40;1.00;;;;;;5090914;28;20460;-60
2022/03/29 11:06:17;;;;;;;46.80;39.13;;;13.00;1.00;;;;;;5098699;28;20792;-60
2022/03/29 11:08:48;;;;;;;47.53;37.20;;;13.20;1.00;;;;;;5094228;28;20760;-60
2022/03/29 11:11:40;;;;;;;52.90;40.70;;;13.20;1.00;;;;;;5097155;28;20457;-61
2022/03/29 11:14:37;;;;;;;50.87;38.57;;;13.20;1.00;;;;;;5097463;28;20571;-60
2022/03/29 11:17:43;;;;;;;46.20;38.57;;;13.40;1.00;;;;;;5096825;28;20488;-60
2022/03/29 11:20:32;;;;;;;48.80;38.00;;;13.50;1.00;;;;;;5018252;28;20562;-60
2022/03/29 11:23:07;;;;;;;50.50;39.40;;;13.80;1.00;;;;;;5076325;28;20475;-60
2022/03/29 11:25:40;;;;;;;45.10;36.60;;;14.20;1.00;;;;;;5099611;28;20463;-60
2022/03/29 11:28:12;;;;;;;45.47;37.40;;;14.70;1.00;;;;;;5099088;28;20529;-61
2022/03/29 11:30:39;;;;;;;46.77;38.87;;;14.60;99.90;;;;;;5098899;28;20468;-60
2022/03/29 11:33:12;;;;;;;45.53;39.10;;;14.80;99.90;;;;;;5098088;28;20977;-60
2022/03/29 11:35:53;;;;;;;45.30;38.03;;;14.90;99.90;;;;;;5098599;28;20456;-60
2022/03/29 11:38:24;;;;;;;43.73;37.70;;;15.10;99.90;;;;;;5089847;28;20525;-60
2022/03/29 11:40:54;;;;;;;46.77;39.63;;;14.60;99.90;;;;;;5099807;28;20492;-60
2022/03/29 11:43:24;;;;;;;44.97;38.30;;;14.70;99.90;;;;;;5098088;28;20464;-60
2022/03/29 11:46:00;;;;;;;42.53;37.20;;;14.80;99.90;;;;;;5100038;28;20510;-59
2022/03/29 11:48:31;;;;;;;43.33;38.50;;;15.10;99.90;;;;;;5098527;28;20459;-61
2022/03/29 11:51:02;;;;;;;41.73;36.87;;;15.30;99.90;;;;;;5093108;28;20464;-61
2022/03/29 11:53:37;;;;;;;49.87;41.00;;;15.20;99.90;;;;;;5098150;28;20761;-61
2022/03/29 11:56:11;;;;;;;46.07;38.63;;;15.20;99.90;;;;;;5098697;28;20456;-61
2022/03/29 11:58:48;;;;;;;44.50;38.30;;;15.60;99.90;;;;;;5099017;28;20544;-61
2022/03/29 12:01:21;;;;;;;47.00;40.00;;;15.50;99.90;;;;;;5098586;28;20519;-61
2022/03/29 12:03:57;;;;;;;43.53;38.80;;;15.60;99.90;;;;;;5097304;28;20500;-60
2022/03/29 12:06:29;;;;;;;44.60;37.80;;;15.60;99.90;;;;;;5097943;28;20517;-61
2022/03/29 12:08:57;;;;;;;44.90;39.70;;;16.00;99.90;;;;;;5097771;28;20465;-61
2022/03/29 12:11:33;;;;;;;44.43;39.10;;;15.90;99.90;;;;;;5095555;28;20758;-61
2022/03/29 12:14:03;;;;;;;43.13;38.20;;;15.60;99.90;;;;;;5090795;28;20517;-60
2022/03/29 12:16:34;;;;;;;45.03;39.13;;;15.40;99.90;;;;;;5096205;28;20468;-60
2022/03/29 12:19:01;;;;;;;46.93;40.67;;;14.50;99.90;;;;;;5096539;28;20472;-61
2022/03/29 12:21:28;;;;;;;46.90;39.97;;;14.20;99.90;;;;;;5095792;28;20496;-61
2022/03/29 12:24:03;;;;;;;45.43;38.50;;;14.20;99.90;;;;;;5095618;28;20511;-60
2022/03/29 12:26:34;;;;;;;44.23;36.77;;;14.30;99.90;;;;;;5094480;28;20466;-60
2022/03/29 12:29:22;;;;;;;40.37;36.00;;;14.20;99.90;;;;;;5094618;28;20973;-61
2022/03/29 12:31:53;;;;;;;41.43;36.67;;;14.10;99.90;;;;;;5093419;28;20530;-61
2022/03/29 12:34:25;;;;;;;43.40;37.40;;;13.80;99.90;;;;;;5094732;28;20456;-61
2022/03/29 12:36:53;;;;;;;45.10;38.47;;;13.70;99.90;;;;;;5096081;28;20461;-61
2022/03/29 12:39:22;;;;;;;43.57;36.50;;;13.60;99.90;;;;;;5096831;28;20464;-60
2022/03/29 12:41:58;;;;;;;43.13;37.70;;;13.50;99.90;;;;;;5096315;28;20517;-61
2022/03/29 12:44:37;;;;;;;43.23;35.43;;;13.40;99.90;;;;;;5097632;28;20463;-61
2022/03/29 12:47:06;;;;;;;43.90;36.77;;;13.30;99.90;;;;;;5098160;28;20496;-61
2022/03/29 12:49:34;;;;;;;40.83;35.00;;;13.40;1.00;;;;;;5096734;28;20518;-60
2022/03/29 12:52:05;;;;;;;44.13;36.70;;;13.60;99.90;;;;;;5096900;28;20452;-60
2022/03/29 12:54:42;;;;;;;45.00;37.80;;;13.60;99.90;;;;;;5097379;28;20484;-61
2022/03/29 12:57:14;;;;;;;44.60;36.20;;;13.70;99.90;;;;;;5091811;28;20464;-61
2022/03/29 12:59:43;;;;;;;42.33;36.00;;;13.60;99.90;;;;;;5090572;28;20510;-61
2022/03/29 13:02:21;;;;;;;45.53;37.70;;;13.60;99.90;;;;;;5088877;28;20912;-61
2022/03/29 13:05:04;;;;;;;42.60;35.73;;;13.20;99.90;;;;;;5098126;28;20513;-61
2022/03/29 13:07:39;;;;;;;41.73;34.57;;;12.90;99.90;;;;;;5097163;28;20488;-61
2022/03/29 13:10:10;;;;;;;42.53;32.87;;;12.80;1.00;;;;;;5097479;28;20749;-61